Terminal Aerodrome Forecast
Issued by NWS North Platte, NE

Home | Current Version | Previous Version | Text Only | Print | Product List | Glossary On
Versions: 1 2 3 4 5 6 7 8 9 10 11 12 13 14
000
FTUS43 KLBF 251120
TAFLBF
TAF
KLBF 251120Z 2512/2612 12005KT P6SM SKC
     FM251600 14010KT P6SM FEW250
     FM252000 14012G18KT P6SM FEW250
     FM260100 13009KT P6SM BKN250=

USA.gov is the U.S. government's official web portal to all federal, state and local government web resources and services.